createdAt,value
2017-10-31T00:00:50.147Z,2.40
2017-10-31T00:05:52.912Z,2.60
2017-10-31T00:10:56.293Z,3.03
2017-10-31T00:15:59.095Z,3.10
2017-10-31T00:21:01.716Z,2.47
2017-10-31T00:26:04.424Z,2.60
2017-10-31T00:31:07.000Z,4.07
2017-10-31T00:36:09.752Z,2.40
2017-10-31T00:41:13.289Z,4.17
2017-10-31T00:46:16.791Z,2.87
2017-10-31T00:51:19.662Z,3.20
2017-10-31T00:56:22.922Z,3.13
2017-10-31T01:01:25.570Z,3.67
2017-10-31T01:06:28.130Z,3.37
2017-10-31T01:11:31.608Z,3.33
2017-10-31T01:16:34.340Z,3.37
2017-10-31T01:21:36.928Z,3.40
2017-10-31T01:26:39.653Z,3.77
2017-10-31T01:31:42.445Z,3.30
2017-10-31T01:36:45.186Z,3.80
2017-10-31T01:41:47.979Z,3.53
2017-10-31T01:46:50.848Z,3.30
2017-10-31T01:51:53.735Z,4.30
2017-10-31T01:56:56.509Z,3.33
2017-10-31T02:01:59.451Z,3.43
2017-10-31T02:07:02.244Z,3.53
2017-10-31T02:12:05.166Z,3.97
2017-10-31T02:17:08.758Z,3.47
2017-10-31T02:22:11.650Z,4.20
2017-10-31T02:27:14.504Z,3.33
2017-10-31T02:32:17.085Z,3.80
2017-10-31T02:37:35.389Z,4.57
2017-10-31T02:42:38.301Z,3.03
2017-10-31T02:47:41.293Z,3.93
2017-10-31T02:52:44.126Z,2.97
2017-10-31T02:57:47.168Z,3.00
2017-10-31T03:02:50.615Z,3.47
2017-10-31T03:07:53.512Z,3.07
2017-10-31T03:12:56.170Z,3.00
2017-10-31T03:17:59.048Z,3.00
2017-10-31T03:23:02.068Z,3.07
2017-10-31T03:28:05.085Z,3.33
2017-10-31T03:33:08.216Z,3.43
2017-10-31T03:38:10.271Z,3.10
2017-10-31T03:43:13.018Z,2.73
2017-10-31T03:48:15.121Z,2.93
2017-10-31T03:53:17.108Z,2.60
2017-10-31T03:58:19.878Z,2.80
2017-10-31T04:03:21.876Z,2.90
2017-10-31T04:08:23.882Z,2.60
2017-10-31T04:13:25.889Z,2.70
2017-10-31T04:18:27.835Z,3.30
2017-10-31T04:23:29.795Z,2.40
2017-10-31T04:28:31.759Z,3.00
2017-10-31T04:33:34.475Z,2.53
2017-10-31T04:38:38.012Z,2.63
2017-10-31T04:43:40.700Z,2.30
2017-10-31T04:48:42.719Z,2.10
2017-10-31T04:53:44.792Z,1.87
2017-10-31T04:58:46.786Z,2.67
2017-10-31T05:03:49.200Z,2.50
2017-10-31T05:08:51.165Z,2.53
2017-10-31T05:13:53.099Z,2.57
2017-10-31T05:18:54.987Z,2.67
2017-10-31T05:23:57.648Z,2.00
2017-10-31T05:28:59.565Z,2.20
2017-10-31T05:34:01.515Z,2.57
2017-10-31T05:39:04.296Z,2.57
2017-10-31T05:44:06.260Z,2.33
2017-10-31T05:49:08.511Z,2.87
2017-10-31T05:54:14.113Z,2.80
2017-10-31T05:59:20.590Z,3.17
2017-10-31T06:04:24.729Z,2.53
2017-10-31T06:09:29.023Z,2.40
2017-10-31T06:14:31.029Z,2.70
2017-10-31T06:19:32.957Z,2.90
2017-10-31T06:24:40.921Z,3.07
2017-10-31T06:29:49.548Z,3.70
2017-10-31T06:34:51.472Z,3.63
2017-10-31T06:39:53.465Z,3.10
2017-10-31T06:44:55.353Z,3.53
2017-10-31T06:49:57.302Z,3.37
2017-10-31T06:54:59.216Z,4.10
2017-10-31T07:00:01.205Z,3.77
2017-10-31T07:05:03.909Z,3.77
2017-10-31T07:10:05.842Z,3.83
2017-10-31T07:15:07.799Z,4.00
2017-10-31T07:20:09.724Z,4.67
2017-10-31T07:25:11.633Z,4.40
2017-10-31T07:30:14.348Z,4.27
2017-10-31T07:35:16.264Z,3.80
2017-10-31T07:40:18.896Z,3.73
2017-10-31T07:45:20.928Z,4.00
2017-10-31T07:50:23.176Z,3.70
2017-10-31T07:55:25.151Z,4.43
2017-10-31T08:00:29.127Z,4.50
2017-10-31T08:05:33.138Z,5.07
2017-10-31T08:10:35.910Z,4.80
2017-10-31T08:15:37.821Z,5.67
2017-10-31T08:20:40.552Z,5.07
2017-10-31T08:25:43.238Z,4.70
2017-10-31T08:30:45.768Z,4.83
2017-10-31T08:35:47.726Z,5.23
2017-10-31T08:40:49.701Z,4.93
2017-10-31T08:51:28.526Z,4.03
2017-10-31T08:56:31.299Z,4.23
2017-10-31T09:01:33.342Z,4.23
2017-10-31T09:06:35.277Z,4.30
2017-10-31T09:11:37.206Z,4.07
2017-10-31T09:16:39.186Z,4.37
2017-10-31T09:21:41.095Z,4.60
2017-10-31T09:26:43.002Z,4.30
2017-10-31T09:31:44.903Z,4.47
2017-10-31T09:36:46.850Z,5.10
2017-10-31T09:41:48.852Z,5.00
2017-10-31T09:46:50.734Z,6.03
2017-10-31T09:51:52.715Z,5.10
2017-10-31T09:56:54.765Z,5.40
2017-10-31T10:01:56.762Z,6.20
2017-10-31T10:06:58.675Z,6.53
2017-10-31T10:12:00.711Z,5.83
2017-10-31T10:17:03.443Z,6.00
2017-10-31T10:22:06.096Z,5.80
2017-10-31T10:27:08.015Z,6.80
2017-10-31T10:32:09.911Z,6.97
2017-10-31T10:37:11.812Z,6.37
2017-10-31T10:42:13.752Z,6.10
2017-10-31T10:47:15.730Z,5.80
2017-10-31T10:52:17.707Z,5.50
2017-10-31T10:57:19.638Z,5.33
2017-10-31T11:02:21.688Z,5.30
2017-10-31T11:07:24.384Z,5.70
2017-10-31T11:12:26.495Z,6.00
2017-10-31T11:17:28.460Z,5.97
2017-10-31T11:22:30.411Z,6.20
2017-10-31T11:27:32.367Z,6.60
2017-10-31T11:32:34.343Z,6.50
2017-10-31T11:37:36.280Z,6.90
2017-10-31T11:42:40.543Z,6.30
2017-10-31T11:47:42.468Z,6.90
2017-10-31T11:52:44.431Z,7.40
2017-10-31T11:57:46.353Z,7.70
2017-10-31T12:02:48.286Z,8.20
2017-10-31T12:07:50.275Z,7.93
2017-10-31T12:12:52.192Z,8.87
2017-10-31T12:17:54.111Z,9.57
2017-10-31T12:22:56.806Z,8.80
2017-10-31T12:27:58.732Z,10.87
2017-10-31T12:33:00.713Z,9.03
2017-10-31T12:38:02.727Z,8.87
2017-10-31T12:43:04.667Z,9.33
2017-10-31T12:48:06.633Z,9.60
2017-10-31T12:53:08.581Z,9.50
2017-10-31T12:58:10.563Z,9.67
2017-10-31T13:03:12.488Z,10.03
2017-10-31T13:08:14.472Z,10.10
2017-10-31T13:13:17.166Z,9.90
2017-10-31T13:18:19.136Z,11.40
2017-10-31T13:23:21.167Z,10.53
2017-10-31T13:28:23.913Z,10.73
2017-10-31T13:33:26.964Z,12.90
2017-10-31T13:38:29.929Z,10.40
2017-10-31T13:43:32.888Z,11.40
2017-10-31T13:48:35.100Z,11.90
2017-10-31T13:53:36.992Z,10.40
2017-10-31T13:58:39.131Z,14.20
2017-10-31T14:03:42.468Z,10.53
2017-10-31T14:08:45.951Z,11.13
2017-10-31T14:13:47.887Z,10.60
2017-10-31T14:18:50.436Z,10.90
2017-10-31T14:23:53.227Z,15.90
2017-10-31T14:28:55.175Z,11.57
2017-10-31T14:33:57.100Z,12.33
2017-10-31T14:38:59.064Z,11.70
2017-10-31T14:44:01.720Z,11.70
2017-10-31T14:49:03.690Z,12.83
2017-10-31T14:54:05.637Z,12.73
2017-10-31T14:59:07.595Z,13.17
2017-10-31T15:04:10.281Z,15.47
2017-10-31T15:09:12.184Z,15.87
2017-10-31T15:14:14.112Z,13.40
2017-10-31T15:19:16.061Z,14.63
2017-10-31T15:24:17.987Z,18.13
2017-10-31T15:29:19.889Z,15.83
2017-10-31T15:34:21.826Z,15.30
2017-10-31T15:39:24.484Z,15.83
2017-10-31T15:44:26.424Z,16.73
2017-10-31T15:49:28.356Z,15.63
2017-10-31T15:54:31.089Z,14.53
2017-10-31T15:59:33.735Z,17.80
2017-10-31T16:04:35.651Z,15.47
2017-10-31T16:09:37.556Z,15.10
2017-10-31T16:14:39.500Z,17.13
2017-10-31T16:19:42.230Z,15.40
2017-10-31T16:24:44.883Z,14.53
2017-10-31T16:29:46.804Z,15.33
2017-10-31T16:34:48.753Z,14.00
2017-10-31T16:39:51.409Z,14.23
2017-10-31T16:44:53.396Z,16.30
2017-10-31T16:49:55.315Z,13.20
2017-10-31T16:54:57.238Z,15.30
2017-10-31T16:59:59.146Z,13.73
2017-10-31T17:05:01.049Z,13.80
2017-10-31T17:10:03.080Z,13.10
2017-10-31T17:15:05.025Z,12.77
2017-10-31T17:20:06.942Z,13.50
2017-10-31T17:25:08.903Z,13.07
2017-10-31T17:30:11.704Z,12.77
2017-10-31T17:35:13.622Z,12.77
2017-10-31T17:40:15.558Z,11.90
2017-10-31T17:45:17.735Z,12.57
2017-10-31T17:50:19.816Z,12.37
2017-10-31T17:55:21.781Z,11.53
2017-10-31T18:00:23.844Z,12.37
2017-10-31T18:05:25.860Z,15.60
2017-10-31T18:10:28.516Z,14.50
2017-10-31T18:15:30.468Z,14.77
2017-10-31T18:20:32.419Z,13.60
2017-10-31T18:25:34.808Z,14.30
2017-10-31T18:30:42.455Z,15.20
2017-10-31T18:35:50.030Z,14.80
2017-10-31T18:40:53.009Z,15.67
2017-10-31T18:45:55.768Z,17.63
2017-10-31T18:50:59.961Z,18.87
2017-10-31T18:56:04.129Z,17.83
2017-10-31T19:01:07.888Z,17.77
2017-10-31T19:06:11.873Z,21.17
2017-10-31T19:11:18.629Z,19.03
2017-10-31T19:16:25.413Z,19.47
2017-10-31T19:21:28.503Z,18.67
2017-10-31T19:26:31.136Z,20.07
2017-10-31T19:31:33.784Z,20.03
2017-10-31T19:36:37.583Z,21.20
2017-10-31T19:41:44.930Z,20.93
2017-10-31T19:46:57.249Z,23.50
2017-10-31T19:52:05.680Z,24.13
2017-10-31T19:57:12.030Z,24.47
2017-10-31T20:02:19.645Z,26.00
2017-10-31T20:07:29.426Z,25.27
2017-10-31T20:12:39.601Z,24.70
2017-10-31T20:17:51.524Z,25.20
2017-10-31T20:22:54.595Z,25.10
2017-10-31T20:27:57.236Z,25.23
2017-10-31T20:33:00.285Z,26.20
2017-10-31T20:38:03.301Z,25.67
2017-10-31T20:43:06.896Z,27.30
2017-10-31T20:48:08.868Z,26.70
2017-10-31T20:53:14.899Z,27.30
2017-10-31T20:58:17.070Z,26.33
2017-10-31T21:03:21.055Z,27.27
2017-10-31T21:08:22.969Z,27.07
2017-10-31T21:13:25.076Z,27.23
2017-10-31T21:18:27.770Z,27.60
2017-10-31T21:23:30.473Z,27.87
2017-10-31T21:28:34.044Z,26.60
2017-10-31T21:33:36.582Z,28.67
2017-10-31T21:38:39.310Z,27.83
2017-10-31T21:43:42.174Z,27.10
2017-10-31T21:48:45.573Z,27.20
2017-10-31T21:53:48.129Z,27.00
2017-10-31T21:58:51.839Z,26.50
2017-10-31T22:03:53.800Z,25.87
2017-10-31T22:08:55.729Z,24.57
2017-10-31T22:13:57.642Z,25.00
2017-10-31T22:18:59.567Z,23.17
2017-10-31T22:24:01.602Z,25.40
2017-10-31T22:29:04.250Z,23.80
2017-10-31T22:34:06.315Z,24.13
2017-10-31T22:39:08.304Z,23.57
2017-10-31T22:44:10.193Z,25.47
2017-10-31T22:49:12.076Z,23.50
2017-10-31T22:54:13.981Z,22.90
2017-10-31T22:59:15.896Z,24.40
2017-10-31T23:04:17.781Z,23.73
2017-10-31T23:09:19.704Z,26.13
2017-10-31T23:14:21.643Z,27.50
2017-10-31T23:19:23.529Z,28.43
2017-10-31T23:24:25.547Z,27.17
2017-10-31T23:29:28.213Z,28.87
2017-10-31T23:34:30.755Z,27.00
2017-10-31T23:39:32.668Z,27.40
2017-10-31T23:44:34.592Z,27.30
2017-10-31T23:49:36.567Z,26.87
2017-10-31T23:54:38.551Z,26.07
2017-10-31T23:59:40.432Z,24.93
